Time;durP1;ratioP1;P1;durP2;ratioP2;P2;SDS_P1;SDS_P2;PMS_P1;PMS_P2;Temp;Humidity;BMP_temperature;BMP_pressure;BME280_temperature;BME280_humidity;BME280_pressure;Samples;Min_cycle;Max_cycle;Signal;HPM_P1;HPM_P2
2022/11/01 00:00:00;;;;;;;52.30;23.13;;;;;;;11.47;100.00;100987.50;7386722;19;20780;-51
2022/11/01 00:02:32;;;;;;;50.83;22.60;;;;;;;11.51;100.00;100985.00;7389637;19;20398;-52
2022/11/01 00:05:02;;;;;;;55.33;24.57;;;;;;;11.53;100.00;100980.81;7385824;19;20428;-51
2022/11/01 00:07:31;;;;;;;48.83;22.30;;;;;;;11.43;100.00;100975.25;7390157;19;20398;-54
2022/11/01 00:10:01;;;;;;;50.70;23.03;;;;;;;11.44;100.00;100976.16;7387494;19;20427;-52
2022/11/01 00:12:32;;;;;;;44.50;22.83;;;;;;;11.47;100.00;100977.16;7389636;19;20393;-52
2022/11/01 00:15:02;;;;;;;43.67;22.17;;;;;;;11.53;100.00;100973.06;7386274;19;20406;-51
2022/11/01 00:17:34;;;;;;;40.83;20.80;;;;;;;11.51;100.00;100979.84;7388562;19;20387;-56
2022/11/01 00:20:03;;;;;;;46.20;23.37;;;;;;;11.55;100.00;100979.16;7386199;19;20430;-51
2022/11/01 00:22:33;;;;;;;47.00;21.80;;;;;;;11.58;100.00;100969.84;7389976;19;20386;-50
2022/11/01 00:25:03;;;;;;;46.50;21.37;;;;;;;11.48;100.00;100973.75;7386744;19;20406;-50
2022/11/01 00:27:32;;;;;;;41.27;20.23;;;;;;;11.49;100.00;100972.06;7389709;19;20386;-49
2022/11/01 00:30:02;;;;;;;40.10;21.13;;;;;;;11.50;100.00;100975.50;7384670;19;20417;-50
2022/11/01 00:32:34;;;;;;;43.23;21.30;;;;;;;11.51;100.00;100977.25;7389824;19;20396;-53
2022/11/01 00:35:03;;;;;;;42.60;21.93;;;;;;;11.52;100.00;100973.84;7384530;19;20418;-49
2022/11/01 00:37:33;;;;;;;35.33;19.87;;;;;;;11.50;100.00;100980.66;7389752;19;20393;-47
2022/11/01 00:40:02;;;;;;;40.63;19.63;;;;;;;11.52;100.00;100981.59;7386751;19;20400;-49
2022/11/01 00:42:32;;;;;;;44.50;23.43;;;;;;;11.53;100.00;100988.56;7389351;19;20398;-50
2022/11/01 00:45:01;;;;;;;43.10;20.70;;;;;;;11.63;100.00;100987.25;7385234;19;20410;-49
2022/11/01 00:47:33;;;;;;;38.13;20.27;;;;;;;11.59;100.00;100976.75;7391992;19;20430;-50
2022/11/01 00:50:03;;;;;;;38.93;20.90;;;;;;;11.60;100.00;100980.25;7386172;19;20457;-52
2022/11/01 00:52:32;;;;;;;41.63;21.40;;;;;;;11.64;100.00;100971.78;7388242;19;20782;-51
2022/11/01 00:55:02;;;;;;;37.30;20.43;;;;;;;11.55;100.00;100961.06;7384751;19;20390;-49
2022/11/01 00:57:31;;;;;;;40.07;21.80;;;;;;;11.57;100.00;100962.91;7386428;19;20403;-50
2022/11/01 01:00:01;;;;;;;37.87;22.13;;;;;;;11.59;100.00;100947.47;7385510;19;20445;-48
2022/11/01 01:02:30;;;;;;;41.10;20.30;;;;;;;11.54;100.00;100941.22;7388464;19;20399;-50
2022/11/01 01:05:03;;;;;;;37.23;21.10;;;;;;;11.51;100.00;100930.75;7384279;19;20417;-55
2022/11/01 01:07:32;;;;;;;40.33;21.63;;;;;;;11.42;100.00;100937.31;7388689;19;20395;-50
2022/11/01 01:10:02;;;;;;;38.73;20.70;;;;;;;11.44;100.00;100946.00;7384828;19;20402;-48
2022/11/01 01:12:31;;;;;;;48.03;24.30;;;;;;;11.40;100.00;100954.47;7386209;19;20744;-48
2022/11/01 01:15:01;;;;;;;42.83;21.63;;;;;;;11.56;100.00;100939.59;7385281;19;20410;-50
2022/11/01 01:17:30;;;;;;;45.33;22.20;;;;;;;11.46;100.00;100944.38;7386306;19;20399;-48
2022/11/01 01:20:06;;;;;;;44.17;22.97;;;;;;;11.44;100.00;100935.66;7385694;19;20843;-48
2022/11/01 01:22:35;;;;;;;42.90;22.57;;;;;;;11.44;100.00;100940.84;7388365;19;20394;-52
2022/11/01 01:25:05;;;;;;;43.07;22.33;;;;;;;11.56;100.00;100932.72;7385011;19;21124;-51
2022/11/01 01:27:35;;;;;;;46.80;24.47;;;;;;;11.51;100.00;100928.16;7387364;19;20494;-50
2022/11/01 01:30:05;;;;;;;44.53;24.60;;;;;;;11.48;100.00;100927.25;7385775;19;20411;-48
2022/11/01 01:32:35;;;;;;;47.77;24.03;;;;;;;11.53;100.00;100923.97;7388260;19;20399;-49
2022/11/01 01:35:08;;;;;;;51.10;25.67;;;;;;;11.60;100.00;100915.63;7384048;19;20453;-50
2022/11/01 01:37:38;;;;;;;47.30;24.00;;;;;;;11.54;100.00;100908.50;7386056;19;20395;-50
2022/11/01 01:40:09;;;;;;;52.93;26.10;;;;;;;11.54;100.00;100894.72;7384438;19;20950;-49
2022/11/01 01:42:41;;;;;;;54.10;27.57;;;;;;;11.64;100.00;100893.38;7395722;19;20417;-50
2022/11/01 01:45:22;;;;;;;50.93;23.70;;;;;;;11.68;100.00;100895.25;7389342;19;20422;-52
2022/11/01 01:47:53;;;;;;;47.53;26.00;;;;;;;11.60;100.00;100889.78;7394647;19;20414;-50
2022/11/01 01:50:29;;;;;;;49.93;24.53;;;;;;;11.60;100.00;100887.22;7392098;19;20414;-49
2022/11/01 01:53:02;;;;;;;47.97;25.13;;;;;;;11.66;100.00;100879.69;7394323;19;20411;-49
2022/11/01 01:55:35;;;;;;;50.73;26.13;;;;;;;11.73;100.00;100871.34;7391325;19;20413;-50
2022/11/01 01:58:05;;;;;;;56.47;25.90;;;;;;;11.68;100.00;100867.72;7390633;19;20430;-48
2022/11/01 02:00:35;;;;;;;55.83;26.30;;;;;;;11.70;100.00;100863.47;7391508;19;20417;-51
2022/11/01 02:03:05;;;;;;;50.03;24.47;;;;;;;11.81;100.00;100868.19;7392550;19;20414;-49
2022/11/01 02:05:42;;;;;;;58.90;26.70;;;;;;;11.70;100.00;100850.56;7389377;19;20426;-52
2022/11/01 02:08:14;;;;;;;49.57;24.40;;;;;;;11.74;100.00;100849.84;7393726;19;20961;-52
2022/11/01 02:10:44;;;;;;;51.67;26.50;;;;;;;11.75;100.00;100843.84;7391743;19;20797;-51
2022/11/01 02:13:15;;;;;;;53.43;27.87;;;;;;;11.82;100.00;100834.66;7394240;19;20739;-51
2022/11/01 02:15:52;;;;;;;56.07;26.90;;;;;;;11.81;100.00;100837.16;7391185;19;20410;-48
2022/11/01 02:18:28;;;;;;;60.87;28.87;;;;;;;12.03;100.00;100825.91;7392932;19;20427;-48
2022/11/01 02:21:29;;;;;;;46.67;25.47;;;;;;;12.12;100.00;100828.00;7389818;19;20401;-50
2022/11/01 02:24:28;;;;;;;54.63;27.43;;;;;;;12.17;100.00;100828.16;7393814;19;20402;-54
2022/11/01 02:27:04;;;;;;;76.60;37.97;;;;;;;12.37;100.00;100815.94;7392548;19;20415;-49
2022/11/01 02:30:04;;;;;;;57.57;28.17;;;;;;;12.36;100.00;100821.97;7390073;19;20778;-53
2022/11/01 02:32:45;;;;;;;61.90;32.90;;;;;;;12.65;100.00;100816.91;7393728;19;20393;-51
2022/11/01 02:35:18;;;;;;;53.40;27.27;;;;;;;12.56;100.00;100820.03;7389760;19;20765;-51
2022/11/01 02:37:53;;;;;;;55.63;27.60;;;;;;;12.36;100.00;100827.13;7390493;19;20404;-52
2022/11/01 02:40:27;;;;;;;50.53;27.00;;;;;;;12.22;100.00;100822.34;7392018;19;20435;-53
2022/11/01 02:42:59;;;;;;;54.50;27.40;;;;;;;12.16;100.00;100819.53;7393136;19;20391;-48
2022/11/01 02:45:33;;;;;;;58.77;28.93;;;;;;;12.22;100.00;100817.19;7390077;19;20411;-52
2022/11/01 02:48:06;;;;;;;64.60;30.10;;;;;;;12.16;100.00;100819.53;7392275;19;20442;-50
2022/11/01 02:50:38;;;;;;;60.60;30.73;;;;;;;12.15;100.00;100799.66;7390792;19;20406;-50
2022/11/01 02:53:08;;;;;;;65.43;30.93;;;;;;;12.10;100.00;100796.03;7390417;19;20755;-48
2022/11/01 02:55:38;;;;;;;59.77;30.80;;;;;;;12.05;100.00;100795.00;7387320;19;20444;-53
2022/11/01 02:58:11;;;;;;;61.50;30.97;;;;;;;12.02;100.00;100794.00;7386680;19;20593;-51
2022/11/01 03:00:41;;;;;;;69.03;31.50;;;;;;;12.08;100.00;100780.47;7391857;19;20415;-50
2022/11/01 03:03:16;;;;;;;71.53;31.50;;;;;;;12.07;100.00;100782.97;7392421;19;20385;-54
2022/11/01 03:06:04;;;;;;;61.53;31.20;;;;;;;12.13;100.00;100784.09;7389200;19;20406;-50
2022/11/01 03:08:34;;;;;;;68.87;31.07;;;;;;;12.08;100.00;100792.50;7391489;19;20426;-48
2022/11/01 03:11:08;;;;;;;69.53;32.97;;;;;;;12.15;100.00;100799.66;7389956;19;20434;-51
2022/11/01 03:13:49;;;;;;;79.20;33.70;;;;;;;12.19;100.00;100788.59;7390826;19;20410;-53
2022/11/01 03:16:21;;;;;;;66.47;32.03;;;;;;;12.19;100.00;100775.66;7389140;19;20407;-51
2022/11/01 03:19:19;;;;;;;72.60;32.80;;;;;;;12.23;100.00;100763.72;7390010;19;20424;-47
2022/11/01 03:21:52;;;;;;;64.63;31.90;;;;;;;12.20;100.00;100764.50;7389436;19;20414;-48
2022/11/01 03:24:25;;;;;;;72.67;33.47;;;;;;;12.24;100.00;100760.31;7391845;19;20384;-50
2022/11/01 03:27:01;;;;;;;65.37;32.40;;;;;;;12.25;100.00;100755.19;7390641;19;20421;-50
2022/11/01 03:29:31;;;;;;;66.07;32.50;;;;;;;12.26;100.00;100738.84;7387195;19;20424;-49
2022/11/01 03:42:37;;;;;;;66.60;32.80;;;;;;;12.26;100.00;100712.97;7389541;19;20405;-49
2022/11/01 03:45:12;;;;;;;66.17;33.40;;;;;;;12.25;100.00;100716.38;7387385;19;20411;-49
2022/11/01 03:47:42;;;;;;;68.87;34.90;;;;;;;12.34;100.00;100710.66;7394162;19;20759;-47
2022/11/01 03:50:16;;;;;;;77.40;32.07;;;;;;;12.27;100.00;100706.97;7387378;19;20407;-49
2022/11/01 03:52:46;;;;;;;72.30;33.50;;;;;;;12.28;100.00;100697.50;7391011;19;20741;-51
2022/11/01 03:55:19;;;;;;;67.30;34.30;;;;;;;12.29;100.00;100700.16;7387576;19;20417;-53
2022/11/01 03:57:50;;;;;;;68.97;34.50;;;;;;;12.33;100.00;100706.31;7389911;19;20932;-48
2022/11/01 04:00:24;;;;;;;79.73;34.77;;;;;;;12.39;100.00;100715.97;7389207;19;21242;-49
2022/11/01 04:02:55;;;;;;;76.40;35.90;;;;;;;12.36;100.00;100705.53;7391055;19;20380;-48
2022/11/01 04:05:27;;;;;;;72.17;32.93;;;;;;;12.39;100.00;100703.03;7384702;19;20486;-51
2022/11/01 04:07:56;;;;;;;72.20;34.03;;;;;;;12.37;100.00;100721.09;7389972;19;20411;-47
2022/11/01 04:10:27;;;;;;;72.47;33.50;;;;;;;12.41;100.00;100711.75;7388133;19;20402;-48
2022/11/01 04:12:57;;;;;;;75.50;35.67;;;;;;;12.41;100.00;100711.75;7390484;19;20407;-48
2022/11/01 04:20:59;;;;;;;64.50;33.13;;;;;;;12.40;100.00;100709.97;7389091;19;20932;-48
2022/11/01 04:23:28;;;;;;;67.27;33.40;;;;;;;12.39;100.00;100700.44;7392069;19;20820;-51
2022/11/01 04:25:58;;;;;;;63.50;32.60;;;;;;;12.31;100.00;100699.31;7387116;19;20422;-51
2022/11/01 04:28:27;;;;;;;64.73;32.73;;;;;;;12.29;100.00;100710.50;7389484;19;20432;-50
2022/11/01 04:30:59;;;;;;;63.30;34.50;;;;;;;12.31;100.00;100707.09;7384940;19;20451;-51
2022/11/01 04:33:28;;;;;;;73.93;34.80;;;;;;;12.39;100.00;100714.28;7390082;19;20972;-48
2022/11/01 04:35:58;;;;;;;70.73;34.50;;;;;;;12.31;100.00;100710.53;7386714;19;20441;-50
2022/11/01 04:38:27;;;;;;;66.67;33.23;;;;;;;12.30;100.00;100708.78;7388677;19;20427;-48
2022/11/01 04:40:57;;;;;;;70.93;34.90;;;;;;;12.37;100.00;100709.88;7386505;19;20411;-49
2022/11/01 04:43:26;;;;;;;71.17;32.83;;;;;;;12.36;100.00;100714.16;7390511;19;20404;-48
2022/11/01 04:45:58;;;;;;;75.57;35.70;;;;;;;12.38;100.00;100709.03;7386531;19;20423;-52
2022/11/01 04:48:28;;;;;;;72.63;35.80;;;;;;;12.31;100.00;100700.19;7388946;19;20421;-48
2022/11/01 04:50:58;;;;;;;69.70;33.67;;;;;;;12.34;100.00;100702.88;7387002;19;21205;-49
2022/11/01 04:53:27;;;;;;;73.57;34.63;;;;;;;12.35;100.00;100698.59;7389548;19;20392;-51
2022/11/01 04:55:56;;;;;;;65.13;33.87;;;;;;;12.25;100.00;100711.22;7385325;19;20993;-52
2022/11/01 04:58:26;;;;;;;69.23;35.10;;;;;;;12.25;100.00;100724.16;7387951;19;20548;-50
2022/11/01 05:00:55;;;;;;;67.93;33.90;;;;;;;12.26;100.00;100712.09;7385212;19;20412;-51
2022/11/01 05:03:27;;;;;;;76.30;35.77;;;;;;;12.34;100.00;100702.00;7389129;19;20408;-49
2022/11/01 05:05:57;;;;;;;71.23;34.10;;;;;;;12.31;100.00;100678.63;7385661;19;20436;-48
2022/11/01 05:08:26;;;;;;;66.87;34.83;;;;;;;12.29;100.00;100682.03;7390304;19;20459;-52
2022/11/01 05:10:57;;;;;;;69.43;34.80;;;;;;;12.31;100.00;100683.81;7386334;19;20444;-48
2022/11/01 05:13:26;;;;;;;67.37;35.93;;;;;;;12.35;100.00;100689.13;7388963;19;20376;-48
2022/11/01 05:15:56;;;;;;;72.37;34.80;;;;;;;12.33;100.00;100687.31;7387908;19;20444;-51
2022/11/01 05:18:48;;;;;;;75.33;36.00;;;;;;;12.18;100.00;100688.56;7393726;19;20431;-50
2022/11/01 05:21:17;;;;;;;71.80;34.50;;;;;;;12.18;100.00;100704.06;7393387;19;20427;-50
2022/11/01 05:23:48;;;;;;;72.50;34.90;;;;;;;12.14;100.00;100703.09;7396150;19;20387;-48
2022/11/01 05:26:18;;;;;;;70.03;34.77;;;;;;;12.21;100.00;100703.31;7393152;19;20434;-51
2022/11/01 05:28:47;;;;;;;70.50;36.13;;;;;;;12.19;100.00;100705.81;7394637;19;20444;-53
2022/11/01 05:31:17;;;;;;;73.50;35.63;;;;;;;12.15;100.00;100706.53;7392896;19;20416;-48
2022/11/01 05:33:49;;;;;;;68.50;34.87;;;;;;;12.17;100.00;100702.31;7395078;19;20383;-49
2022/11/01 05:36:18;;;;;;;70.10;35.60;;;;;;;12.20;100.00;100691.19;7390925;19;20450;-48
2022/11/01 05:38:47;;;;;;;76.80;36.10;;;;;;;12.16;100.00;100692.81;7393974;19;20431;-53
2022/11/01 05:41:17;;;;;;;69.10;37.20;;;;;;;12.24;100.00;100683.59;7392911;19;20430;-50
2022/11/01 05:43:46;;;;;;;72.33;35.90;;;;;;;12.12;100.00;100684.06;7395766;19;20414;-52
2022/11/01 05:46:16;;;;;;;69.97;34.07;;;;;;;12.17;100.00;100675.56;7391965;19;20399;-55
2022/11/01 05:48:45;;;;;;;97.60;50.30;;;;;;;12.41;100.00;100685.88;7397798;19;20982;-48
2022/11/01 05:51:18;;;;;;;82.37;36.77;;;;;;;12.37;100.00;100689.19;7393060;19;20422;-50
2022/11/01 05:53:49;;;;;;;103.57;52.40;;;;;;;12.62;100.00;100671.88;7394423;19;20741;-52
2022/11/01 05:56:19;;;;;;;102.17;48.40;;;;;;;12.53;100.00;100670.75;7390782;19;20787;-50
2022/11/01 05:58:49;;;;;;;72.60;36.00;;;;;;;12.34;100.00;100686.47;7393720;19;20780;-50
2022/11/01 06:01:18;;;;;;;66.50;35.60;;;;;;;12.28;100.00;100695.81;7392126;19;20420;-50
2022/11/01 06:03:50;;;;;;;79.23;38.70;;;;;;;12.35;100.00;100691.72;7394981;19;21065;-48
2022/11/01 06:06:22;;;;;;;81.83;35.70;;;;;;;12.38;100.00;100690.94;7391085;19;20422;-51
2022/11/01 06:08:52;;;;;;;91.77;39.10;;;;;;;12.32;100.00;100695.91;7393274;19;20425;-48
2022/11/01 06:11:21;;;;;;;74.67;36.73;;;;;;;12.32;100.00;100701.06;7391299;19;20415;-50
2022/11/01 06:13:54;;;;;;;79.10;36.50;;;;;;;12.23;100.00;100702.53;7394876;19;20755;-48
2022/11/01 06:16:24;;;;;;;75.10;37.17;;;;;;;12.24;100.00;100693.94;7390490;19;20423;-49
2022/11/01 06:18:54;;;;;;;76.80;38.70;;;;;;;12.23;100.00;100697.34;7392767;19;20972;-48
2022/11/01 06:21:26;;;;;;;79.23;37.03;;;;;;;12.21;100.00;100701.56;7391623;19;20412;-49
2022/11/01 06:23:58;;;;;;;79.50;35.17;;;;;;;12.20;100.00;100697.25;7394140;19;20394;-48
2022/11/01 06:26:28;;;;;;;68.80;37.07;;;;;;;12.20;100.00;100696.38;7393919;19;20473;-48
2022/11/01 06:28:57;;;;;;;76.77;38.20;;;;;;;12.17;100.00;100699.72;7391543;19;20434;-46
2022/11/01 06:31:26;;;;;;;76.70;37.10;;;;;;;12.14;100.00;100710.84;7392530;19;20819;-51
2022/11/01 06:33:56;;;;;;;75.10;37.40;;;;;;;12.15;100.00;100698.78;7392853;19;20388;-51
2022/11/01 06:36:29;;;;;;;78.13;35.60;;;;;;;12.13;100.00;100713.38;7389005;19;20423;-48
2022/11/01 06:38:58;;;;;;;76.17;38.63;;;;;;;12.14;100.00;100715.13;7390738;19;20441;-48
2022/11/01 06:41:28;;;;;;;76.37;38.33;;;;;;;12.11;100.00;100712.44;7390689;19;20463;-49
2022/11/01 06:43:57;;;;;;;78.30;37.47;;;;;;;12.13;100.00;100713.38;7396133;19;20406;-49
2022/11/01 06:46:27;;;;;;;76.27;38.07;;;;;;;12.18;100.00;100710.94;7389396;19;20417;-50
2022/11/01 06:48:56;;;;;;;67.80;35.93;;;;;;;12.20;100.00;100711.91;7391626;19;20419;-48
2022/11/01 06:51:28;;;;;;;68.80;36.20;;;;;;;12.15;100.00;100720.38;7391263;19;20483;-46
2022/11/01 06:53:58;;;;;;;73.40;37.50;;;;;;;12.15;100.00;100729.81;7392550;19;20393;-51
2022/11/01 06:56:27;;;;;;;73.10;37.97;;;;;;;12.15;100.00;100733.28;7389351;19;20433;-48
2022/11/01 06:58:56;;;;;;;70.37;34.83;;;;;;;12.17;100.00;100728.19;7391150;19;20423;-48
2022/11/01 07:01:27;;;;;;;74.73;39.10;;;;;;;12.20;100.00;100733.44;7390553;19;20441;-52
2022/11/01 07:03:56;;;;;;;77.67;38.40;;;;;;;12.24;100.00;100730.16;7392339;19;20400;-51
2022/11/01 07:06:29;;;;;;;75.37;36.60;;;;;;;12.25;100.00;100726.72;7392042;19;20448;-48
2022/11/01 07:09:00;;;;;;;74.17;35.63;;;;;;;12.22;100.00;100742.16;7390600;19;20431;-49
2022/11/01 07:11:29;;;;;;;91.57;41.93;;;;;;;12.22;100.00;100741.28;7390277;19;20442;-51
2022/11/01 07:14:00;;;;;;;86.33;37.90;;;;;;;12.22;100.00;100742.16;7392187;19;20407;-48
2022/11/01 07:16:30;;;;;;;73.63;36.47;;;;;;;12.23;100.00;100754.25;7387004;19;20439;-48
2022/11/01 07:19:00;;;;;;;76.10;36.33;;;;;;;12.23;100.00;100755.97;7390788;19;20458;-48
2022/11/01 07:21:32;;;;;;;79.63;38.17;;;;;;;12.26;100.00;100749.19;7389297;19;20459;-51
2022/11/01 07:24:01;;;;;;;75.33;36.73;;;;;;;12.26;100.00;100748.31;7391134;19;20395;-53
2022/11/01 07:26:31;;;;;;;75.10;36.03;;;;;;;12.32;100.00;100758.88;7389463;19;20411;-51
2022/11/01 07:29:00;;;;;;;79.37;37.97;;;;;;;12.28;100.00;100757.91;7389876;19;20423;-48
2022/11/01 07:31:32;;;;;;;80.20;38.07;;;;;;;12.28;100.00;100765.66;7389328;19;20530;-52
2022/11/01 07:34:01;;;;;;;85.50;38.60;;;;;;;12.25;100.00;100768.13;7391399;19;20398;-51
2022/11/01 07:36:33;;;;;;;77.10;38.10;;;;;;;12.29;100.00;100754.47;7388667;19;20423;-48
2022/11/01 07:39:03;;;;;;;68.13;37.47;;;;;;;12.38;100.00;100759.09;7388791;19;20417;-50
2022/11/01 07:41:32;;;;;;;80.83;37.40;;;;;;;12.40;100.00;100756.53;7387999;19;20997;-48
2022/11/01 07:44:01;;;;;;;71.97;35.87;;;;;;;12.40;100.00;100751.38;7391133;19;20425;-49
2022/11/01 07:46:33;;;;;;;73.50;37.10;;;;;;;12.43;100.00;100749.75;7388205;19;20761;-47
2022/11/01 07:49:02;;;;;;;73.40;38.00;;;;;;;12.46;100.00;100746.41;7389853;19;20415;-55
2022/11/01 07:51:34;;;;;;;79.47;37.47;;;;;;;12.45;100.00;100749.81;7388391;19;20432;-53
2022/11/01 07:54:03;;;;;;;77.53;37.20;;;;;;;12.47;100.00;100752.47;7391057;19;20396;-51
2022/11/01 07:56:33;;;;;;;70.87;34.83;;;;;;;12.51;100.00;100755.19;7387374;19;20442;-53
2022/11/01 07:59:02;;;;;;;70.53;35.60;;;;;;;12.54;100.00;100754.44;7389206;19;20425;-51
2022/11/01 08:01:32;;;;;;;69.37;33.07;;;;;;;12.51;100.00;100756.94;7387654;19;20761;-49
2022/11/01 08:04:02;;;;;;;67.67;36.50;;;;;;;12.61;100.00;100755.53;7389421;19;20819;-47
2022/11/01 08:06:34;;;;;;;61.10;32.00;;;;;;;12.64;100.00;100766.84;7387629;19;20426;-50
2022/11/01 08:09:03;;;;;;;64.57;33.37;;;;;;;12.69;100.00;100772.19;7389308;19;20416;-50
2022/11/01 08:11:33;;;;;;;75.40;37.83;;;;;;;12.94;100.00;100776.47;7388595;19;20416;-50
2022/11/01 08:14:02;;;;;;;56.83;30.20;;;;;;;12.87;100.00;100774.47;7390536;19;20390;-50
2022/11/01 08:16:34;;;;;;;66.13;31.23;;;;;;;12.92;100.00;100788.47;7387379;19;20403;-50
2022/11/01 08:19:03;;;;;;;49.63;28.53;;;;;;;13.00;100.00;100793.00;7389289;19;20426;-50
2022/11/01 08:21:35;;;;;;;52.07;27.50;;;;;;;13.00;100.00;100800.78;7386815;19;20412;-49
2022/11/01 08:24:05;;;;;;;58.83;31.90;;;;;;;13.06;100.00;100808.75;7389256;19;20420;-49
2022/11/01 08:26:35;;;;;;;50.20;26.40;;;;;;;13.09;100.00;100817.50;7386755;19;20876;-50
2022/11/01 08:29:04;;;;;;;51.17;25.60;;;;;;;13.11;100.00;100833.09;7393203;19;20456;-51
2022/11/01 08:31:33;;;;;;;62.97;31.53;;;;;;;13.24;100.00;100834.38;7387874;19;20408;-50
2022/11/01 08:34:03;;;;;;;47.40;24.53;;;;;;;13.34;100.00;100851.09;7389606;19;20388;-52
2022/11/01 08:36:33;;;;;;;43.63;22.67;;;;;;;13.45;100.00;100859.22;7385178;19;20946;-52
2022/11/01 08:39:05;;;;;;;44.73;21.33;;;;;;;13.52;100.00;100862.91;7388142;19;20429;-51
2022/11/01 08:41:35;;;;;;;45.27;21.93;;;;;;;13.55;100.00;100861.31;7386643;19;20534;-53
2022/11/01 08:44:06;;;;;;;35.90;18.60;;;;;;;13.59;100.00;100878.69;7388749;19;20397;-53
2022/11/01 08:46:35;;;;;;;52.13;26.67;;;;;;;13.63;100.00;100880.56;7386361;19;20448;-51
2022/11/01 08:49:04;;;;;;;32.63;20.57;;;;;;;13.66;100.00;100876.28;7388713;19;20527;-50
2022/11/01 08:51:34;;;;;;;40.03;19.67;;;;;;;13.73;100.00;100891.19;7391264;19;20417;-52
2022/11/01 08:54:07;;;;;;;33.73;19.03;;;;;;;13.75;100.00;100886.97;7396875;19;20775;-54
2022/11/01 08:56:36;;;;;;;38.60;18.80;;;;;;;13.75;100.00;100890.41;7393778;19;20425;-50
2022/11/01 08:59:05;;;;;;;35.03;18.50;;;;;;;13.76;100.00;100888.72;7395532;19;20481;-52
2022/11/01 09:01:35;;;;;;;38.43;18.27;;;;;;;13.75;100.00;100894.75;7390660;19;20456;-49
2022/11/01 09:04:06;;;;;;;29.70;18.60;;;;;;;13.78;100.00;100889.63;7397171;19;20416;-50
2022/11/01 09:06:35;;;;;;;29.57;17.07;;;;;;;13.80;100.00;100895.75;7393073;19;20421;-47
2022/11/01 09:09:09;;;;;;;35.80;16.93;;;;;;;13.87;100.00;100894.22;7394211;19;20444;-51
2022/11/01 09:11:38;;;;;;;27.90;17.23;;;;;;;14.00;100.00;100898.94;7394074;19;20446;-53
2022/11/01 09:14:08;;;;;;;29.93;16.57;;;;;;;14.06;100.00;100893.06;7396210;19;20403;-52
2022/11/01 09:16:37;;;;;;;31.83;16.80;;;;;;;14.17;100.00;100899.44;7391309;19;20456;-54
2022/11/01 09:19:07;;;;;;;34.70;15.00;;;;;;;14.36;100.00;100899.97;7393630;19;20417;-52
2022/11/01 09:21:36;;;;;;;32.63;14.77;;;;;;;14.47;100.00;100895.09;7391470;19;20440;-51
2022/11/01 09:24:08;;;;;;;22.93;12.87;;;;;;;14.61;100.00;100887.66;7395977;19;20386;-48
2022/11/01 09:26:38;;;;;;;23.57;13.23;;;;;;;14.76;100.00;100901.97;7392805;19;20746;-52
2022/11/01 09:29:07;;;;;;;20.30;10.80;;;;;;;14.83;100.00;100903.88;7394033;19;20548;-49
2022/11/01 09:31:37;;;;;;;21.57;10.07;;;;;;;14.88;100.00;100906.59;7393498;19;20419;-51
2022/11/01 09:34:06;;;;;;;17.00;8.93;;;;;;;14.94;100.00;100899.84;7394296;19;20412;-49
2022/11/01 09:36:36;;;;;;;13.13;7.67;;;;;;;15.00;100.00;100906.91;7391622;19;20417;-50
2022/11/01 09:39:08;;;;;;;11.63;6.07;;;;;;;15.07;100.00;100913.16;7393697;19;20417;-50
2022/11/01 09:41:41;;;;;;;12.80;6.50;;;;;;;15.13;100.00;100923.72;7391156;19;20430;-53
2022/11/01 09:44:16;;;;;;;18.57;7.60;;;;;;;15.21;100.00;100914.38;7395285;19;20400;-47
2022/11/01 09:46:50;;;;;;;12.23;5.80;;;;;;;15.23;100.00;100917.03;7392851;19;20428;-49
2022/11/01 09:49:22;;;;;;;14.27;6.00;;;;;;;15.23;100.00;100920.50;7393575;19;20446;-48
2022/11/01 09:51:52;;;;;;;11.60;5.50;;;;;;;15.28;100.00;100932.72;7393919;19;20445;-50
2022/11/01 09:54:25;;;;;;;10.30;5.73;;;;;;;15.27;100.00;100937.03;7398721;19;20396;-53
2022/11/01 09:57:10;;;;;;;15.47;5.70;;;;;;;15.24;100.00;100942.16;7392859;19;20438;-50
2022/11/01 09:59:44;;;;;;;12.73;5.60;;;;;;;15.24;100.00;100942.16;7389881;19;20386;-51
2022/11/01 10:02:44;;;;;;;15.53;5.77;;;;;;;15.25;100.00;100933.53;7391496;19;20756;-51
2022/11/01 10:05:23;;;;;;;10.60;5.40;;;;;;;15.20;100.00;100933.41;7391129;19;20416;-49
2022/11/01 10:08:01;;;;;;;12.70;5.87;;;;;;;15.17;100.00;100946.31;7393726;19;20389;-52
2022/11/01 10:10:40;;;;;;;12.73;5.77;;;;;;;15.17;100.00;100945.47;7392204;19;20412;-52
2022/11/01 10:13:17;;;;;;;10.50;5.80;;;;;;;15.17;100.00;100946.31;7394217;19;20396;-48
2022/11/01 10:15:56;;;;;;;12.40;5.60;;;;;;;15.15;100.00;100948.00;7391394;19;20407;-49
2022/11/01 10:18:28;;;;;;;13.03;6.67;;;;;;;15.15;100.00;100950.59;7394090;19;20419;-53
2022/11/01 10:20:59;;;;;;;15.07;6.20;;;;;;;15.14;100.00;100950.56;7390823;19;20454;-48
2022/11/01 10:23:40;;;;;;;11.80;6.23;;;;;;;15.16;100.00;100960.16;7393920;19;20386;-51
2022/11/01 10:26:15;;;;;;;11.10;5.77;;;;;;;15.12;100.00;100964.41;7388709;19;20952;-49
2022/11/01 10:28:50;;;;;;;10.90;6.50;;;;;;;15.14;100.00;100956.66;7392727;19;20451;-52
2022/11/01 10:31:23;;;;;;;14.57;6.23;;;;;;;15.10;100.00;100970.38;7391345;19;20447;-53
2022/11/01 10:33:58;;;;;;;19.27;6.00;;;;;;;15.07;100.00;100975.53;7396268;19;20420;-50
2022/11/01 10:36:32;;;;;;;19.30;6.23;;;;;;;15.03;100.00;100974.53;7390486;19;20495;-48
2022/11/01 10:39:10;;;;;;;15.40;6.00;;;;;;;15.05;100.00;100977.19;7392578;19;20446;-50
2022/11/01 10:42:09;;;;;;;12.33;5.17;;;;;;;15.03;100.00;100978.88;7389914;19;20440;-48
2022/11/01 10:44:42;;;;;;;12.80;5.07;;;;;;;15.09;100.00;100979.03;7391226;19;20917;-51
2022/11/01 10:47:17;;;;;;;11.13;5.40;;;;;;;15.13;100.00;100980.88;7391874;19;20761;-50
2022/11/01 10:49:49;;;;;;;11.07;5.23;;;;;;;15.08;100.00;100982.47;7390033;19;20444;-48
2022/11/01 10:52:46;;;;;;;14.20;5.60;;;;;;;15.14;100.00;100977.44;7393406;19;20777;-48
2022/11/01 10:55:19;;;;;;;8.03;4.70;;;;;;;15.33;100.00;100977.91;7389669;19;20435;-51
2022/11/01 10:57:55;;;;;;;11.97;5.00;;;;;;;15.29;100.00;100976.97;7392570;19;20380;-50
2022/11/01 11:00:24;;;;;;;10.07;4.67;;;;;;;15.18;100.00;100979.25;7389686;19;20620;-51
2022/11/01 11:02:57;;;;;;;9.60;4.50;;;;;;;15.40;100.00;100979.84;7389789;19;20472;-50
2022/11/01 11:05:28;;;;;;;9.50;4.30;;;;;;;15.59;100.00;100980.28;7391266;19;20767;-50
2022/11/01 11:08:00;;;;;;;9.33;4.00;;;;;;;15.70;100.00;100984.03;7392517;19;20418;-52
2022/11/01 11:10:30;;;;;;;5.67;2.40;;;;;;;15.72;100.00;100987.53;7390378;19;20437;-51
2022/11/01 11:13:06;;;;;;;6.50;1.87;;;;;;;15.57;100.00;101008.84;7390748;19;20406;-48
2022/11/01 11:15:39;;;;;;;5.10;2.20;;;;;;;15.71;100.00;101029.13;7389403;19;20417;-49
2022/11/01 11:18:16;;;;;;;9.53;2.20;;;;;;;15.86;100.00;101020.81;7392179;19;20419;-52
2022/11/01 11:20:46;;;;;;;5.23;2.33;;;;;;;15.99;100.00;101038.50;7387515;19;20403;-48
2022/11/01 11:23:15;;;;;;;9.27;2.03;;;;;;;16.02;100.00;101056.81;7390448;19;20757;-48
2022/11/01 11:25:44;;;;;;;7.03;2.90;;;;;;;16.30;100.00;101060.03;7389291;19;20416;-48
2022/11/01 11:28:25;;;;;;;7.07;2.63;;;;;;;16.53;100.00;101061.41;7394706;19;20442;-48
2022/11/01 11:30:55;;;;;;;8.53;2.80;;;;;;;16.49;100.00;101070.88;7389614;19;21009;-54
2022/11/01 11:33:24;;;;;;;7.33;1.70;;;;;;;16.64;100.00;101069.44;7392241;19;20877;-55
2022/11/01 11:35:55;;;;;;;11.40;2.40;;;;;;;16.65;100.00;101072.09;7388188;19;20408;-54
2022/11/01 11:38:46;;;;;;;7.77;2.97;;;;;;;16.64;100.00;101095.50;7390250;19;20470;-53
2022/11/01 11:41:28;;;;;;;7.33;1.47;;;;;;;16.16;100.00;101142.16;7390630;19;20438;-54